createdAt,value
2019-05-18T00:04:21.359Z,31.10
2019-05-18T00:09:22.868Z,28.30
2019-05-18T00:14:24.401Z,31.07
2019-05-18T00:19:25.940Z,30.50
2019-05-18T00:24:27.539Z,32.87
2019-05-18T00:29:29.067Z,29.33
2019-05-18T00:34:30.446Z,31.13
2019-05-18T00:39:31.912Z,26.73
2019-05-18T00:44:33.385Z,30.70
2019-05-18T00:49:34.906Z,27.83
2019-05-18T00:54:36.312Z,30.37
2019-05-18T00:59:37.810Z,33.40
2019-05-18T01:04:39.339Z,34.63
2019-05-18T01:09:40.858Z,34.73
2019-05-18T01:14:42.385Z,37.77
2019-05-18T01:19:43.918Z,35.40
2019-05-18T01:24:45.224Z,34.63
2019-05-18T01:29:46.575Z,37.33
2019-05-18T01:34:47.997Z,36.87
2019-05-18T01:39:49.504Z,39.47
2019-05-18T01:44:51.417Z,38.90
2019-05-18T01:49:52.832Z,39.00
2019-05-18T01:54:54.324Z,38.40
2019-05-18T01:59:55.741Z,38.87
2019-05-18T02:04:57.269Z,40.93
2019-05-18T02:09:58.753Z,42.93
2019-05-18T02:15:00.286Z,38.60
2019-05-18T02:20:01.918Z,44.50
2019-05-18T02:25:03.641Z,38.93
2019-05-18T02:30:05.486Z,45.33
2019-05-18T02:35:06.882Z,41.73
2019-05-18T02:40:08.441Z,41.00
2019-05-18T02:45:09.959Z,44.80
2019-05-18T02:50:11.476Z,44.07
2019-05-18T02:55:12.954Z,45.10
2019-05-18T03:00:14.828Z,44.97
2019-05-18T03:05:16.354Z,42.07
2019-05-18T03:10:17.641Z,44.13
2019-05-18T03:15:19.190Z,43.77
2019-05-18T03:20:20.820Z,44.53
2019-05-18T03:25:22.358Z,45.17
2019-05-18T03:30:23.848Z,46.03
2019-05-18T03:35:25.237Z,49.70
2019-05-18T03:40:26.752Z,46.50
2019-05-18T03:45:28.331Z,50.40
2019-05-18T03:50:29.904Z,47.43
2019-05-18T03:55:31.410Z,47.13
2019-05-18T04:00:32.972Z,53.93
2019-05-18T04:05:34.512Z,49.83
2019-05-18T04:10:36.041Z,51.50
2019-05-18T04:15:37.490Z,54.23
2019-05-18T04:20:38.926Z,57.70
2019-05-18T04:25:43.745Z,58.10
2019-05-18T04:30:43.958Z,55.10
2019-05-18T04:35:45.479Z,56.40
2019-05-18T04:40:46.984Z,60.80
2019-05-18T04:45:48.618Z,54.20
2019-05-18T04:50:50.168Z,55.00
2019-05-18T04:55:51.659Z,61.40
2019-05-18T05:00:53.198Z,57.13
2019-05-18T05:05:54.760Z,55.27
2019-05-18T05:10:56.291Z,55.83
2019-05-18T05:15:57.811Z,52.43
2019-05-18T05:20:59.356Z,51.30
2019-05-18T05:26:01.058Z,50.50
2019-05-18T05:31:02.528Z,47.63
2019-05-18T05:36:04.082Z,45.23
2019-05-18T05:41:05.634Z,44.57
2019-05-18T05:46:07.090Z,44.63
2019-05-18T05:51:08.448Z,42.20
2019-05-18T05:56:10.121Z,44.87
2019-05-18T06:01:11.767Z,41.43
2019-05-18T06:06:13.436Z,41.30
2019-05-18T06:11:15.004Z,43.67
2019-05-18T06:16:16.508Z,46.57
2019-05-18T06:21:18.104Z,44.87
2019-05-18T06:26:19.668Z,48.10
2019-05-18T06:31:23.086Z,43.60
2019-05-18T06:36:24.634Z,51.93
2019-05-18T06:41:26.182Z,49.47
2019-05-18T06:51:42.891Z,51.07
2019-05-18T06:56:44.392Z,47.17
2019-05-18T07:01:45.938Z,50.20
2019-05-18T07:06:47.352Z,50.25
2019-05-18T07:11:49.034Z,46.30
2019-05-18T07:16:50.528Z,45.20
2019-05-18T07:21:52.088Z,49.18
2019-05-18T07:26:53.530Z,45.88
2019-05-18T07:31:54.980Z,46.55
2019-05-18T07:36:56.558Z,42.48
2019-05-18T07:41:58.062Z,43.08
2019-05-18T07:46:59.568Z,44.42
2019-05-18T07:52:01.125Z,41.37
2019-05-18T07:57:02.705Z,40.08
2019-05-18T08:02:04.173Z,44.03
2019-05-18T08:07:05.799Z,38.23
2019-05-18T08:12:07.385Z,39.92
2019-05-18T08:17:08.900Z,39.58
2019-05-18T08:22:10.458Z,39.15
2019-05-18T08:27:11.991Z,40.48
2019-05-18T08:32:13.474Z,42.60
2019-05-18T08:37:14.988Z,40.55
2019-05-18T08:42:16.596Z,39.73
2019-05-18T08:47:18.233Z,38.10
2019-05-18T08:52:19.674Z,42.93
2019-05-18T08:57:21.216Z,39.15
2019-05-18T09:02:22.719Z,39.25
2019-05-18T09:07:24.279Z,40.88
2019-05-18T09:12:25.747Z,38.38
2019-05-18T09:17:27.314Z,33.30
2019-05-18T09:22:28.826Z,35.58
2019-05-18T09:27:30.387Z,33.67
2019-05-18T09:32:31.779Z,33.90
2019-05-18T09:37:33.322Z,30.88
2019-05-18T09:42:34.853Z,29.07
2019-05-18T09:47:36.435Z,30.68
2019-05-18T09:52:46.185Z,25.08
2019-05-18T09:57:41.368Z,31.15
2019-05-18T10:02:42.797Z,28.42
2019-05-18T10:07:44.232Z,27.32
2019-05-18T10:12:45.758Z,28.40
2019-05-18T10:17:47.307Z,27.60
2019-05-18T10:22:59.046Z,29.20
2019-05-18T10:27:52.282Z,24.05
2019-05-18T10:32:53.679Z,23.80
2019-05-18T10:37:55.192Z,24.45
2019-05-18T10:42:56.696Z,29.80
2019-05-18T10:47:59.379Z,27.67
2019-05-18T10:53:00.918Z,30.27
2019-05-18T10:58:02.435Z,25.12
2019-05-18T11:03:03.873Z,23.85
2019-05-18T11:08:05.417Z,21.30
2019-05-18T11:13:06.954Z,22.30
2019-05-18T11:18:08.577Z,21.07
2019-05-18T11:23:10.154Z,19.98
2019-05-18T11:28:11.655Z,22.42
2019-05-18T11:33:13.184Z,26.95
2019-05-18T11:38:14.701Z,19.52
2019-05-18T11:43:16.271Z,18.48
2019-05-18T11:48:17.763Z,22.37
2019-05-18T11:53:19.293Z,18.57
2019-05-18T11:58:20.803Z,27.70
2019-05-18T12:03:22.355Z,22.90
2019-05-18T12:08:23.875Z,23.85
2019-05-18T12:13:25.555Z,22.05
2019-05-18T12:18:27.107Z,23.05
2019-05-18T12:23:28.657Z,23.18
2019-05-18T12:28:31.566Z,19.87
2019-05-18T12:33:33.140Z,24.63
2019-05-18T12:38:34.630Z,22.20
2019-05-18T12:43:36.170Z,22.00
2019-05-18T12:48:37.565Z,21.48
2019-05-18T12:53:39.055Z,20.80
2019-05-18T12:58:40.595Z,20.37
2019-05-18T13:03:42.149Z,22.07
2019-05-18T13:08:43.669Z,19.67
2019-05-18T13:13:45.351Z,18.82
2019-05-18T13:18:46.897Z,19.50
2019-05-18T13:23:48.302Z,20.17
2019-05-18T13:28:49.837Z,17.30
2019-05-18T13:33:51.502Z,18.20
2019-05-18T13:38:52.787Z,16.32
2019-05-18T13:43:54.051Z,16.45
2019-05-18T13:48:55.441Z,17.07
2019-05-18T13:53:56.669Z,17.70
2019-05-18T13:58:58.269Z,15.38
2019-05-18T14:03:59.730Z,18.42
2019-05-18T14:09:01.012Z,15.98
2019-05-18T14:14:02.657Z,21.62
2019-05-18T14:19:04.257Z,23.40
2019-05-18T14:24:05.741Z,22.58
2019-05-18T14:29:07.322Z,23.38
2019-05-18T14:34:08.880Z,23.95
2019-05-18T14:39:10.398Z,23.95
2019-05-18T14:44:12.062Z,26.45
2019-05-18T14:49:13.383Z,24.50
2019-05-18T14:54:14.681Z,24.07
2019-05-18T14:59:16.256Z,25.12
2019-05-18T15:04:17.490Z,27.77
2019-05-18T15:09:19.140Z,24.27
2019-05-18T15:14:20.689Z,24.82
2019-05-18T15:19:22.203Z,25.52
2019-05-18T15:24:23.834Z,24.10
2019-05-18T15:29:25.527Z,25.27
2019-05-18T15:34:27.155Z,28.47
2019-05-18T15:39:28.566Z,23.70
2019-05-18T15:44:30.142Z,23.62
2019-05-18T15:49:31.642Z,23.62
2019-05-18T15:54:36.147Z,24.02
2019-05-18T15:59:37.359Z,24.85
2019-05-18T16:04:38.610Z,21.73
2019-05-18T16:09:39.983Z,24.43
2019-05-18T16:14:41.376Z,23.80
2019-05-18T16:19:42.629Z,24.92
2019-05-18T16:24:43.891Z,24.50
2019-05-18T16:29:45.530Z,22.58
2019-05-18T16:34:47.077Z,38.80
2019-05-18T16:39:48.641Z,39.00
2019-05-18T16:44:50.177Z,42.33
2019-05-18T16:49:51.475Z,42.03
2019-05-18T16:54:53.054Z,42.62
2019-05-18T16:59:54.618Z,42.75
2019-05-18T17:04:56.256Z,46.05
2019-05-18T17:09:58.152Z,47.17
2019-05-18T17:14:59.626Z,50.52
2019-05-18T17:20:01.259Z,52.83
2019-05-18T17:25:02.939Z,51.15
2019-05-18T17:30:04.658Z,46.08
2019-05-18T17:35:06.156Z,44.53
2019-05-18T17:40:07.693Z,43.20
2019-05-18T17:45:09.127Z,44.30
2019-05-18T17:50:10.697Z,41.90
2019-05-18T17:55:12.205Z,43.90
2019-05-18T18:00:13.863Z,49.05
2019-05-18T18:05:15.380Z,51.28
2019-05-18T18:10:16.977Z,53.63
2019-05-18T18:15:18.428Z,57.40
2019-05-18T18:20:21.178Z,55.63
2019-05-18T18:25:22.779Z,52.50
2019-05-18T18:30:24.540Z,51.08
2019-05-18T18:35:26.085Z,54.30
2019-05-18T18:40:27.525Z,56.08
2019-05-18T18:45:29.129Z,59.60
2019-05-18T18:50:30.617Z,57.70
2019-05-18T18:55:32.237Z,56.18
2019-05-18T19:00:33.932Z,60.65
2019-05-18T19:05:35.584Z,61.60
2019-05-18T19:10:37.107Z,62.65
2019-05-18T19:15:38.610Z,63.60
2019-05-18T19:20:40.180Z,64.45
2019-05-18T19:25:41.738Z,69.65
2019-05-18T19:30:43.334Z,71.17
2019-05-18T19:35:44.756Z,66.62
2019-05-18T19:40:46.298Z,67.17
2019-05-18T19:45:47.849Z,72.47
2019-05-18T19:50:49.519Z,75.08
2019-05-18T19:55:51.030Z,72.50
2019-05-18T20:00:52.642Z,78.02
2019-05-18T20:05:54.260Z,73.87
2019-05-18T20:10:55.979Z,72.90
2019-05-18T20:15:57.478Z,77.47
2019-05-18T20:21:00.057Z,79.95
2019-05-18T20:26:01.626Z,79.60
2019-05-18T20:31:03.500Z,75.90
2019-05-18T20:36:05.166Z,81.20
2019-05-18T20:41:07.339Z,79.42
2019-05-18T20:46:08.879Z,80.60
2019-05-18T20:51:10.269Z,76.45
2019-05-18T20:56:11.847Z,79.80
2019-05-18T21:01:13.375Z,82.27
2019-05-18T21:06:15.327Z,80.17
2019-05-18T21:11:16.835Z,78.37
2019-05-18T21:16:18.463Z,81.22
2019-05-18T21:21:25.086Z,81.00
2019-05-18T21:26:23.627Z,83.35
2019-05-18T21:31:25.276Z,82.02
2019-05-18T21:36:26.789Z,83.52
2019-05-18T21:41:28.315Z,84.30
2019-05-18T21:46:29.813Z,78.33
2019-05-18T21:51:31.382Z,85.03
2019-05-18T21:56:32.914Z,84.30
2019-05-18T22:01:34.445Z,87.15
2019-05-18T22:06:35.981Z,85.40
2019-05-18T22:11:37.586Z,83.35
2019-05-18T22:16:39.114Z,84.77
2019-05-18T22:21:40.689Z,82.55
2019-05-18T22:26:42.091Z,81.20
2019-05-18T22:31:43.629Z,91.05
2019-05-18T22:36:45.069Z,83.03
2019-05-18T22:41:46.603Z,84.75
2019-05-18T22:46:48.028Z,86.42
2019-05-18T22:51:49.542Z,86.53
2019-05-18T22:56:51.192Z,90.83
2019-05-18T23:01:52.646Z,88.45
2019-05-18T23:06:54.177Z,86.32
2019-05-18T23:11:55.629Z,83.37
2019-05-18T23:16:57.214Z,86.87
2019-05-18T23:21:58.723Z,83.60
2019-05-18T23:27:00.054Z,87.72
2019-05-18T23:32:01.571Z,83.00
2019-05-18T23:37:03.095Z,85.83
2019-05-18T23:42:04.685Z,86.05
2019-05-18T23:47:06.223Z,84.83
2019-05-18T23:52:07.748Z,85.80
2019-05-18T23:57:09.283Z,85.50
